sensor_id;sensor_type;location;lat;lon;timestamp;temperature;humidity
69677;DHT22;56914;51.058;9.326;2022-10-15T00:02:09;19.30;64.00
69677;DHT22;56914;51.058;9.326;2022-10-15T00:04:37;19.20;64.00
69677;DHT22;56914;51.058;9.326;2022-10-15T00:07:05;19.20;64.10
69677;DHT22;56914;51.058;9.326;2022-10-15T00:09:33;19.20;64.10
69677;DHT22;56914;51.058;9.326;2022-10-15T00:12:12;19.20;64.10
69677;DHT22;56914;51.058;9.326;2022-10-15T00:14:41;19.20;64.10
69677;DHT22;56914;51.058;9.326;2022-10-15T00:17:09;19.20;64.10
69677;DHT22;56914;51.058;9.326;2022-10-15T00:19:37;19.20;64.00
69677;DHT22;56914;51.058;9.326;2022-10-15T00:22:08;19.20;64.00
69677;DHT22;56914;51.058;9.326;2022-10-15T00:24:39;19.20;64.10
69677;DHT22;56914;51.058;9.326;2022-10-15T00:27:08;19.20;64.10
69677;DHT22;56914;51.058;9.326;2022-10-15T00:29:38;19.20;64.10
69677;DHT22;56914;51.058;9.326;2022-10-15T00:32:07;19.20;64.20
69677;DHT22;56914;51.058;9.326;2022-10-15T00:35:08;19.10;64.20
69677;DHT22;56914;51.058;9.326;2022-10-15T00:37:38;19.20;64.10
69677;DHT22;56914;51.058;9.326;2022-10-15T00:40:07;19.20;64.10
69677;DHT22;56914;51.058;9.326;2022-10-15T00:42:35;19.20;64.10
69677;DHT22;56914;51.058;9.326;2022-10-15T00:45:07;19.20;64.00
69677;DHT22;56914;51.058;9.326;2022-10-15T00:47:40;19.30;63.80
69677;DHT22;56914;51.058;9.326;2022-10-15T00:50:08;19.30;64.50
69677;DHT22;56914;51.058;9.326;2022-10-15T00:52:39;19.30;63.80
69677;DHT22;56914;51.058;9.326;2022-10-15T00:55:11;19.30;63.80
69677;DHT22;56914;51.058;9.326;2022-10-15T00:58:03;19.30;63.80
69677;DHT22;56914;51.058;9.326;2022-10-15T01:00:34;19.40;63.70
69677;DHT22;56914;51.058;9.326;2022-10-15T01:03:02;19.50;63.60
69677;DHT22;56914;51.058;9.326;2022-10-15T01:05:30;19.40;63.70
69677;DHT22;56914;51.058;9.326;2022-10-15T01:08:00;19.30;63.90
69677;DHT22;56914;51.058;9.326;2022-10-15T01:10:30;19.30;63.90
69677;DHT22;56914;51.058;9.326;2022-10-15T01:13:11;19.30;63.90
69677;DHT22;56914;51.058;9.326;2022-10-15T01:15:42;19.40;63.90
69677;DHT22;56914;51.058;9.326;2022-10-15T01:18:13;19.40;63.80
69677;DHT22;56914;51.058;9.326;2022-10-15T01:20:54;19.50;63.50
69677;DHT22;56914;51.058;9.326;2022-10-15T01:26:24;19.40;63.80
69677;DHT22;56914;51.058;9.326;2022-10-15T01:29:04;19.40;63.90
69677;DHT22;56914;51.058;9.326;2022-10-15T01:31:39;19.40;63.80
69677;DHT22;56914;51.058;9.326;2022-10-15T01:34:11;19.50;63.50
69677;DHT22;56914;51.058;9.326;2022-10-15T01:36:45;19.60;63.40
69677;DHT22;56914;51.058;9.326;2022-10-15T01:39:15;19.60;63.30
69677;DHT22;56914;51.058;9.326;2022-10-15T01:42:12;19.70;63.20
69677;DHT22;56914;51.058;9.326;2022-10-15T01:44:43;19.70;63.20
69677;DHT22;56914;51.058;9.326;2022-10-15T01:47:18;19.70;63.20
69677;DHT22;56914;51.058;9.326;2022-10-15T01:49:55;19.60;63.20
69677;DHT22;56914;51.058;9.326;2022-10-15T01:52:30;19.70;63.10
69677;DHT22;56914;51.058;9.326;2022-10-15T01:55:30;19.70;62.90
69677;DHT22;56914;51.058;9.326;2022-10-15T01:58:24;19.70;63.10
69677;DHT22;56914;51.058;9.326;2022-10-15T02:01:26;19.70;63.20
69677;DHT22;56914;51.058;9.326;2022-10-15T02:04:33;19.60;63.10
69677;DHT22;56914;51.058;9.326;2022-10-15T02:07:24;19.60;63.20
69677;DHT22;56914;51.058;9.326;2022-10-15T02:10:40;19.60;63.20
69677;DHT22;56914;51.058;9.326;2022-10-15T02:13:20;19.60;63.00
69677;DHT22;56914;51.058;9.326;2022-10-15T02:19:28;19.60;62.90
69677;DHT22;56914;51.058;9.326;2022-10-15T02:22:05;19.50;63.00
69677;DHT22;56914;51.058;9.326;2022-10-15T02:25:01;19.40;63.10
69677;DHT22;56914;51.058;9.326;2022-10-15T02:28:31;19.40;63.30
69677;DHT22;56914;51.058;9.326;2022-10-15T02:31:50;19.30;63.50
69677;DHT22;56914;51.058;9.326;2022-10-15T02:34:30;19.30;63.50
69677;DHT22;56914;51.058;9.326;2022-10-15T02:41:00;19.50;63.50
69677;DHT22;56914;51.058;9.326;2022-10-15T02:44:00;19.50;63.40
69677;DHT22;56914;51.058;9.326;2022-10-15T02:46:35;19.60;63.20
69677;DHT22;56914;51.058;9.326;2022-10-15T02:49:52;19.60;63.10
69677;DHT22;56914;51.058;9.326;2022-10-15T02:53:03;19.70;63.10
69677;DHT22;56914;51.058;9.326;2022-10-15T02:55:32;19.70;63.00
69677;DHT22;56914;51.058;9.326;2022-10-15T02:58:11;19.80;63.00
69677;DHT22;56914;51.058;9.326;2022-10-15T03:00:40;19.80;62.80
69677;DHT22;56914;51.058;9.326;2022-10-15T03:03:30;19.80;62.70
69677;DHT22;56914;51.058;9.326;2022-10-15T03:06:01;19.80;62.70
69677;DHT22;56914;51.058;9.326;2022-10-15T03:08:29;19.90;62.80
69677;DHT22;56914;51.058;9.326;2022-10-15T03:10:58;19.90;62.60
69677;DHT22;56914;51.058;9.326;2022-10-15T03:13:26;19.80;62.60
69677;DHT22;56914;51.058;9.326;2022-10-15T03:15:54;19.80;62.80
69677;DHT22;56914;51.058;9.326;2022-10-15T03:18:22;19.80;62.80
69677;DHT22;56914;51.058;9.326;2022-10-15T03:20:53;19.80;62.70
69677;DHT22;56914;51.058;9.326;2022-10-15T03:23:22;19.80;62.70
69677;DHT22;56914;51.058;9.326;2022-10-15T03:25:50;19.70;62.80
69677;DHT22;56914;51.058;9.326;2022-10-15T03:28:19;19.70;63.00
69677;DHT22;56914;51.058;9.326;2022-10-15T03:30:47;19.60;63.10
69677;DHT22;56914;51.058;9.326;2022-10-15T03:33:15;19.70;63.10
69677;DHT22;56914;51.058;9.326;2022-10-15T03:35:47;19.70;63.00
69677;DHT22;56914;51.058;9.326;2022-10-15T03:38:15;19.70;63.00
69677;DHT22;56914;51.058;9.326;2022-10-15T03:40:45;19.60;63.20
69677;DHT22;56914;51.058;9.326;2022-10-15T03:43:12;19.60;63.60
69677;DHT22;56914;51.058;9.326;2022-10-15T03:45:41;19.60;63.40
69677;DHT22;56914;51.058;9.326;2022-10-15T03:48:09;19.70;63.30
69677;DHT22;56914;51.058;9.326;2022-10-15T03:50:37;19.70;63.20
69677;DHT22;56914;51.058;9.326;2022-10-15T03:53:09;19.70;63.20
69677;DHT22;56914;51.058;9.326;2022-10-15T03:55:40;19.70;63.10
69677;DHT22;56914;51.058;9.326;2022-10-15T03:58:10;19.80;63.00
69677;DHT22;56914;51.058;9.326;2022-10-15T04:00:40;19.80;63.10
69677;DHT22;56914;51.058;9.326;2022-10-15T04:03:12;19.70;63.20
69677;DHT22;56914;51.058;9.326;2022-10-15T04:05:48;19.70;63.10
69677;DHT22;56914;51.058;9.326;2022-10-15T04:08:26;19.70;63.00
69677;DHT22;56914;51.058;9.326;2022-10-15T04:11:11;19.70;63.00
69677;DHT22;56914;51.058;9.326;2022-10-15T04:13:43;19.70;63.20
69677;DHT22;56914;51.058;9.326;2022-10-15T04:16:15;19.60;63.20
69677;DHT22;56914;51.058;9.326;2022-10-15T04:18:52;19.60;63.20
69677;DHT22;56914;51.058;9.326;2022-10-15T04:22:02;19.60;63.20
69677;DHT22;56914;51.058;9.326;2022-10-15T04:24:31;19.50;63.30
69677;DHT22;56914;51.058;9.326;2022-10-15T04:27:01;19.50;63.40
69677;DHT22;56914;51.058;9.326;2022-10-15T04:29:31;19.50;63.50
69677;DHT22;56914;51.058;9.326;2022-10-15T04:32:06;19.50;63.70
69677;DHT22;56914;51.058;9.326;2022-10-15T04:34:34;19.30;63.80
69677;DHT22;56914;51.058;9.326;2022-10-15T04:37:02;19.40;63.80
69677;DHT22;56914;51.058;9.326;2022-10-15T04:39:30;19.40;63.70
69677;DHT22;56914;51.058;9.326;2022-10-15T04:41:58;19.40;63.70
69677;DHT22;56914;51.058;9.326;2022-10-15T04:44:28;19.40;63.80
69677;DHT22;56914;51.058;9.326;2022-10-15T04:46:57;19.40;63.80
69677;DHT22;56914;51.058;9.326;2022-10-15T04:49:25;19.50;63.70
69677;DHT22;56914;51.058;9.326;2022-10-15T04:51:53;19.50;63.60
69677;DHT22;56914;51.058;9.326;2022-10-15T04:54:30;19.50;63.50
69677;DHT22;56914;51.058;9.326;2022-10-15T04:57:01;19.50;63.60
69677;DHT22;56914;51.058;9.326;2022-10-15T04:59:31;19.40;63.70
69677;DHT22;56914;51.058;9.326;2022-10-15T05:02:01;19.50;63.50
69677;DHT22;56914;51.058;9.326;2022-10-15T05:04:29;19.50;63.40
69677;DHT22;56914;51.058;9.326;2022-10-15T05:06:57;19.50;63.40
69677;DHT22;56914;51.058;9.326;2022-10-15T05:09:25;19.50;63.50
69677;DHT22;56914;51.058;9.326;2022-10-15T05:11:56;19.60;63.40
69677;DHT22;56914;51.058;9.326;2022-10-15T05:14:24;19.60;63.20
69677;DHT22;56914;51.058;9.326;2022-10-15T05:16:52;19.70;63.20
69677;DHT22;56914;51.058;9.326;2022-10-15T05:19:21;19.70;63.00
69677;DHT22;56914;51.058;9.326;2022-10-15T05:21:49;19.70;62.90
69677;DHT22;56914;51.058;9.326;2022-10-15T05:24:17;19.70;62.90
69677;DHT22;56914;51.058;9.326;2022-10-15T05:26:45;19.70;62.90
69677;DHT22;56914;51.058;9.326;2022-10-15T05:29:13;19.70;63.00
69677;DHT22;56914;51.058;9.326;2022-10-15T05:31:40;19.70;63.00
69677;DHT22;56914;51.058;9.326;2022-10-15T05:34:08;19.70;62.90
69677;DHT22;56914;51.058;9.326;2022-10-15T05:36:37;19.70;62.80
69677;DHT22;56914;51.058;9.326;2022-10-15T05:39:05;19.70;62.90
69677;DHT22;56914;51.058;9.326;2022-10-15T05:41:35;19.70;62.90
69677;DHT22;56914;51.058;9.326;2022-10-15T05:44:03;19.70;62.80
69677;DHT22;56914;51.058;9.326;2022-10-15T05:46:31;19.80;62.80
69677;DHT22;56914;51.058;9.326;2022-10-15T05:48:59;19.70;62.80
69677;DHT22;56914;51.058;9.326;2022-10-15T05:51:27;19.60;63.00
69677;DHT22;56914;51.058;9.326;2022-10-15T05:53:56;19.60;63.30
69677;DHT22;56914;51.058;9.326;2022-10-15T05:56:24;19.60;63.40
69677;DHT22;56914;51.058;9.326;2022-10-15T05:58:52;19.60;63.40
69677;DHT22;56914;51.058;9.326;2022-10-15T06:01:20;19.60;63.20
69677;DHT22;56914;51.058;9.326;2022-10-15T06:03:48;19.60;63.20
69677;DHT22;56914;51.058;9.326;2022-10-15T06:06:17;19.50;63.30
69677;DHT22;56914;51.058;9.326;2022-10-15T06:08:45;19.50;63.30
69677;DHT22;56914;51.058;9.326;2022-10-15T06:11:15;19.50;63.40
69677;DHT22;56914;51.058;9.326;2022-10-15T06:13:43;19.50;63.50
69677;DHT22;56914;51.058;9.326;2022-10-15T06:16:11;19.50;63.50
69677;DHT22;56914;51.058;9.326;2022-10-15T06:18:43;19.50;63.60
69677;DHT22;56914;51.058;9.326;2022-10-15T06:21:11;19.50;63.50
69677;DHT22;56914;51.058;9.326;2022-10-15T06:23:39;19.50;63.50
69677;DHT22;56914;51.058;9.326;2022-10-15T06:26:07;19.50;63.50
69677;DHT22;56914;51.058;9.326;2022-10-15T06:28:37;19.60;63.60
69677;DHT22;56914;51.058;9.326;2022-10-15T06:31:05;19.60;63.70
69677;DHT22;56914;51.058;9.326;2022-10-15T06:33:33;19.60;63.70
69677;DHT22;56914;51.058;9.326;2022-10-15T06:36:02;19.60;63.60
69677;DHT22;56914;51.058;9.326;2022-10-15T06:38:30;19.60;63.80
69677;DHT22;56914;51.058;9.326;2022-10-15T06:40:58;19.60;63.70
69677;DHT22;56914;51.058;9.326;2022-10-15T06:43:26;19.60;63.80
69677;DHT22;56914;51.058;9.326;2022-10-15T06:45:59;19.60;63.80
69677;DHT22;56914;51.058;9.326;2022-10-15T06:48:27;19.60;63.90
69677;DHT22;56914;51.058;9.326;2022-10-15T06:50:56;19.60;63.80
69677;DHT22;56914;51.058;9.326;2022-10-15T06:53:27;19.70;63.80
69677;DHT22;56914;51.058;9.326;2022-10-15T06:55:56;19.60;63.70
69677;DHT22;56914;51.058;9.326;2022-10-15T06:58:24;19.60;63.80
69677;DHT22;56914;51.058;9.326;2022-10-15T07:00:52;19.50;63.90
69677;DHT22;56914;51.058;9.326;2022-10-15T07:03:27;19.50;64.20
69677;DHT22;56914;51.058;9.326;2022-10-15T07:05:55;19.50;64.30
69677;DHT22;56914;51.058;9.326;2022-10-15T07:08:23;19.50;64.40
69677;DHT22;56914;51.058;9.326;2022-10-15T07:10:51;19.50;64.30
69677;DHT22;56914;51.058;9.326;2022-10-15T07:13:19;19.60;64.30
69677;DHT22;56914;51.058;9.326;2022-10-15T07:15:47;19.60;64.40
69677;DHT22;56914;51.058;9.326;2022-10-15T07:18:19;19.60;64.30
69677;DHT22;56914;51.058;9.326;2022-10-15T07:20:48;19.70;64.20
69677;DHT22;56914;51.058;9.326;2022-10-15T07:23:16;19.70;64.10
69677;DHT22;56914;51.058;9.326;2022-10-15T07:25:44;19.80;64.10
69677;DHT22;56914;51.058;9.326;2022-10-15T07:28:11;19.90;64.10
69677;DHT22;56914;51.058;9.326;2022-10-15T07:30:39;19.90;64.10
69677;DHT22;56914;51.058;9.326;2022-10-15T07:33:07;19.80;64.30
69677;DHT22;56914;51.058;9.326;2022-10-15T07:35:35;19.80;64.40
69677;DHT22;56914;51.058;9.326;2022-10-15T07:38:05;19.90;64.60
69677;DHT22;56914;51.058;9.326;2022-10-15T07:40:32;20.00;64.60
69677;DHT22;56914;51.058;9.326;2022-10-15T07:43:00;19.90;64.50
69677;DHT22;56914;51.058;9.326;2022-10-15T07:45:28;20.00;64.50
69677;DHT22;56914;51.058;9.326;2022-10-15T07:47:56;20.00;64.40
69677;DHT22;56914;51.058;9.326;2022-10-15T07:50:23;20.10;64.30
69677;DHT22;56914;51.058;9.326;2022-10-15T07:52:57;20.10;64.20
69677;DHT22;56914;51.058;9.326;2022-10-15T07:55:26;20.20;64.10
69677;DHT22;56914;51.058;9.326;2022-10-15T07:57:55;20.20;64.10
69677;DHT22;56914;51.058;9.326;2022-10-15T08:00:23;20.30;64.00
69677;DHT22;56914;51.058;9.326;2022-10-15T08:02:51;20.40;63.90
69677;DHT22;56914;51.058;9.326;2022-10-15T08:05:18;20.40;63.80
69677;DHT22;56914;51.058;9.326;2022-10-15T08:07:46;20.50;63.50
69677;DHT22;56914;51.058;9.326;2022-10-15T08:13:40;20.60;63.40
69677;DHT22;56914;51.058;9.326;2022-10-15T08:16:08;20.60;63.40
69677;DHT22;56914;51.058;9.326;2022-10-15T08:18:38;20.60;63.50
69677;DHT22;56914;51.058;9.326;2022-10-15T08:21:06;20.70;63.30
69677;DHT22;56914;51.058;9.326;2022-10-15T08:23:34;20.80;63.20
69677;DHT22;56914;51.058;9.326;2022-10-15T08:26:03;20.80;63.10
69677;DHT22;56914;51.058;9.326;2022-10-15T08:28:31;20.90;63.00
69677;DHT22;56914;51.058;9.326;2022-10-15T08:31:00;20.90;63.00
69677;DHT22;56914;51.058;9.326;2022-10-15T08:33:31;20.90;63.00
69677;DHT22;56914;51.058;9.326;2022-10-15T08:35:59;21.00;62.90
69677;DHT22;56914;51.058;9.326;2022-10-15T08:38:29;21.10;63.20
69677;DHT22;56914;51.058;9.326;2022-10-15T08:40:57;21.10;62.50
69677;DHT22;56914;51.058;9.326;2022-10-15T08:43:28;21.20;62.40
69677;DHT22;56914;51.058;9.326;2022-10-15T08:45:58;21.20;62.40
69677;DHT22;56914;51.058;9.326;2022-10-15T08:48:29;21.30;62.50
69677;DHT22;56914;51.058;9.326;2022-10-15T08:50:58;21.40;62.20
69677;DHT22;56914;51.058;9.326;2022-10-15T08:53:36;21.50;62.20
69677;DHT22;56914;51.058;9.326;2022-10-15T08:56:09;21.60;62.10
69677;DHT22;56914;51.058;9.326;2022-10-15T08:58:44;21.60;62.10
69677;DHT22;56914;51.058;9.326;2022-10-15T09:01:14;21.70;61.90
69677;DHT22;56914;51.058;9.326;2022-10-15T09:03:49;21.80;61.90
69677;DHT22;56914;51.058;9.326;2022-10-15T09:06:18;21.90;61.90
69677;DHT22;56914;51.058;9.326;2022-10-15T09:08:50;22.10;61.90
69677;DHT22;56914;51.058;9.326;2022-10-15T09:11:28;22.30;61.60
69677;DHT22;56914;51.058;9.326;2022-10-15T09:13:57;22.40;61.30
69677;DHT22;56914;51.058;9.326;2022-10-15T09:16:28;22.40;61.10
69677;DHT22;56914;51.058;9.326;2022-10-15T09:18:59;22.20;61.00
69677;DHT22;56914;51.058;9.326;2022-10-15T09:21:29;22.00;61.10
69677;DHT22;56914;51.058;9.326;2022-10-15T09:24:00;21.80;61.30
69677;DHT22;56914;51.058;9.326;2022-10-15T09:26:28;21.70;61.40
69677;DHT22;56914;51.058;9.326;2022-10-15T09:28:59;21.60;61.40
69677;DHT22;56914;51.058;9.326;2022-10-15T09:31:32;21.50;61.50
69677;DHT22;56914;51.058;9.326;2022-10-15T09:34:02;21.40;61.60
69677;DHT22;56914;51.058;9.326;2022-10-15T09:36:33;21.40;61.60
69677;DHT22;56914;51.058;9.326;2022-10-15T09:39:04;21.40;61.70
69677;DHT22;56914;51.058;9.326;2022-10-15T09:41:36;21.50;61.60
69677;DHT22;56914;51.058;9.326;2022-10-15T09:44:10;21.60;61.40
69677;DHT22;56914;51.058;9.326;2022-10-15T09:46:43;21.70;61.30
69677;DHT22;56914;51.058;9.326;2022-10-15T09:49:13;21.70;61.00
69677;DHT22;56914;51.058;9.326;2022-10-15T09:51:45;21.80;60.80
69677;DHT22;56914;51.058;9.326;2022-10-15T09:54:19;21.80;60.80
69677;DHT22;56914;51.058;9.326;2022-10-15T09:56:50;21.80;60.80
69677;DHT22;56914;51.058;9.326;2022-10-15T09:59:20;21.90;60.60
69677;DHT22;56914;51.058;9.326;2022-10-15T10:01:57;21.90;60.70
69677;DHT22;56914;51.058;9.326;2022-10-15T10:04:28;22.00;60.80
69677;DHT22;56914;51.058;9.326;2022-10-15T10:06:59;22.10;60.50
69677;DHT22;56914;51.058;9.326;2022-10-15T10:09:30;22.20;60.20
69677;DHT22;56914;51.058;9.326;2022-10-15T10:11:59;22.30;60.10
69677;DHT22;56914;51.058;9.326;2022-10-15T10:14:29;22.50;60.20
69677;DHT22;56914;51.058;9.326;2022-10-15T10:22:31;22.50;59.60
69677;DHT22;56914;51.058;9.326;2022-10-15T10:25:22;22.50;59.80
69677;DHT22;56914;51.058;9.326;2022-10-15T10:27:50;22.60;59.60
69677;DHT22;56914;51.058;9.326;2022-10-15T10:30:18;22.70;59.50
69677;DHT22;56914;51.058;9.326;2022-10-15T10:32:46;22.80;59.10
69677;DHT22;56914;51.058;9.326;2022-10-15T10:35:18;22.80;59.00
69677;DHT22;56914;51.058;9.326;2022-10-15T10:37:48;22.70;58.80
69677;DHT22;56914;51.058;9.326;2022-10-15T10:40:20;22.60;58.90
69677;DHT22;56914;51.058;9.326;2022-10-15T10:42:48;22.60;58.90
69677;DHT22;56914;51.058;9.326;2022-10-15T10:45:35;22.50;58.90
69677;DHT22;56914;51.058;9.326;2022-10-15T10:48:16;22.40;59.00
69677;DHT22;56914;51.058;9.326;2022-10-15T10:50:44;22.40;59.20
69677;DHT22;56914;51.058;9.326;2022-10-15T10:53:20;22.40;59.60
69677;DHT22;56914;51.058;9.326;2022-10-15T10:55:49;22.40;59.30
69677;DHT22;56914;51.058;9.326;2022-10-15T10:58:18;22.40;59.10
69677;DHT22;56914;51.058;9.326;2022-10-15T11:00:52;22.30;59.20
69677;DHT22;56914;51.058;9.326;2022-10-15T11:03:24;22.20;59.40
69677;DHT22;56914;51.058;9.326;2022-10-15T11:05:55;22.20;59.50
69677;DHT22;56914;51.058;9.326;2022-10-15T11:08:27;22.20;59.40
69677;DHT22;56914;51.058;9.326;2022-10-15T11:11:01;22.20;59.50
69677;DHT22;56914;51.058;9.326;2022-10-15T11:13:34;22.10;59.40
69677;DHT22;56914;51.058;9.326;2022-10-15T11:16:06;22.10;59.50
69677;DHT22;56914;51.058;9.326;2022-10-15T11:18:46;22.00;59.50
69677;DHT22;56914;51.058;9.326;2022-10-15T11:21:16;22.00;59.50
69677;DHT22;56914;51.058;9.326;2022-10-15T11:24:02;22.00;59.50
69677;DHT22;56914;51.058;9.326;2022-10-15T11:26:36;22.10;59.50
69677;DHT22;56914;51.058;9.326;2022-10-15T11:29:26;22.20;59.40
69677;DHT22;56914;51.058;9.326;2022-10-15T11:32:01;22.20;59.30
69677;DHT22;56914;51.058;9.326;2022-10-15T11:34:45;22.30;59.20
69677;DHT22;56914;51.058;9.326;2022-10-15T11:37:17;22.20;59.20
69677;DHT22;56914;51.058;9.326;2022-10-15T11:39:56;22.20;59.30
69677;DHT22;56914;51.058;9.326;2022-10-15T11:42:28;22.20;59.30
69677;DHT22;56914;51.058;9.326;2022-10-15T11:45:02;22.20;59.30
69677;DHT22;56914;51.058;9.326;2022-10-15T11:47:35;22.20;59.30
69677;DHT22;56914;51.058;9.326;2022-10-15T11:50:10;22.20;59.50
69677;DHT22;56914;51.058;9.326;2022-10-15T11:52:44;22.20;59.50
69677;DHT22;56914;51.058;9.326;2022-10-15T11:55:17;22.20;59.50
69677;DHT22;56914;51.058;9.326;2022-10-15T11:57:46;22.20;59.50
69677;DHT22;56914;51.058;9.326;2022-10-15T12:00:18;22.20;59.50
69677;DHT22;56914;51.058;9.326;2022-10-15T12:02:49;22.10;59.50
69677;DHT22;56914;51.058;9.326;2022-10-15T12:05:18;22.10;59.50
69677;DHT22;56914;51.058;9.326;2022-10-15T12:07:48;22.10;59.60
69677;DHT22;56914;51.058;9.326;2022-10-15T12:10:19;22.10;59.50
69677;DHT22;56914;51.058;9.326;2022-10-15T12:12:55;22.10;59.80
69677;DHT22;56914;51.058;9.326;2022-10-15T12:15:28;22.10;59.80
69677;DHT22;56914;51.058;9.326;2022-10-15T12:17:59;22.10;59.80
69677;DHT22;56914;51.058;9.326;2022-10-15T12:20:28;22.10;59.80
69677;DHT22;56914;51.058;9.326;2022-10-15T12:22:57;22.30;59.60
69677;DHT22;56914;51.058;9.326;2022-10-15T12:25:44;22.30;59.50
69677;DHT22;56914;51.058;9.326;2022-10-15T12:28:17;22.30;59.40
69677;DHT22;56914;51.058;9.326;2022-10-15T12:30:53;22.30;59.60
69677;DHT22;56914;51.058;9.326;2022-10-15T12:33:23;22.20;59.60
69677;DHT22;56914;51.058;9.326;2022-10-15T12:35:53;22.20;59.60
69677;DHT22;56914;51.058;9.326;2022-10-15T12:38:23;22.10;59.50
69677;DHT22;56914;51.058;9.326;2022-10-15T12:41:00;22.10;59.80
69677;DHT22;56914;51.058;9.326;2022-10-15T12:43:29;22.00;59.90
69677;DHT22;56914;51.058;9.326;2022-10-15T12:45:58;22.10;60.10
69677;DHT22;56914;51.058;9.326;2022-10-15T12:48:30;22.10;60.00
69677;DHT22;56914;51.058;9.326;2022-10-15T12:53:44;22.50;59.80
69677;DHT22;56914;51.058;9.326;2022-10-15T12:56:20;22.70;59.30
69677;DHT22;56914;51.058;9.326;2022-10-15T12:58:49;22.90;59.40
69677;DHT22;56914;51.058;9.326;2022-10-15T13:01:27;23.00;59.10
69677;DHT22;56914;51.058;9.326;2022-10-15T13:03:55;23.10;58.90
69677;DHT22;56914;51.058;9.326;2022-10-15T13:06:26;23.10;58.70
69677;DHT22;56914;51.058;9.326;2022-10-15T13:08:59;23.00;58.70
69677;DHT22;56914;51.058;9.326;2022-10-15T13:11:31;22.90;58.70
69677;DHT22;56914;51.058;9.326;2022-10-15T13:14:00;22.90;58.80
69677;DHT22;56914;51.058;9.326;2022-10-15T13:16:28;23.00;58.80
69677;DHT22;56914;51.058;9.326;2022-10-15T13:18:57;23.00;58.80
69677;DHT22;56914;51.058;9.326;2022-10-15T14:06:50;22.60;59.80
69677;DHT22;56914;51.058;9.326;2022-10-15T14:16:44;22.70;59.40
69677;DHT22;56914;51.058;9.326;2022-10-15T14:22:54;22.70;59.30
69677;DHT22;56914;51.058;9.326;2022-10-15T14:25:25;22.60;59.40
69677;DHT22;56914;51.058;9.326;2022-10-15T14:28:14;22.60;59.50
69677;DHT22;56914;51.058;9.326;2022-10-15T14:30:54;22.60;59.40
69677;DHT22;56914;51.058;9.326;2022-10-15T14:33:29;22.60;59.30
69677;DHT22;56914;51.058;9.326;2022-10-15T14:36:05;22.60;59.40
69677;DHT22;56914;51.058;9.326;2022-10-15T14:38:35;22.60;59.30
69677;DHT22;56914;51.058;9.326;2022-10-15T14:41:04;22.60;59.60
69677;DHT22;56914;51.058;9.326;2022-10-15T14:43:35;22.50;59.70
69677;DHT22;56914;51.058;9.326;2022-10-15T14:46:03;22.40;59.70
69677;DHT22;56914;51.058;9.326;2022-10-15T14:48:33;22.50;60.10
69677;DHT22;56914;51.058;9.326;2022-10-15T14:51:02;22.40;60.10
69677;DHT22;56914;51.058;9.326;2022-10-15T14:53:31;22.40;60.30
69677;DHT22;56914;51.058;9.326;2022-10-15T14:56:05;22.30;60.50
69677;DHT22;56914;51.058;9.326;2022-10-15T14:58:34;22.30;60.60
69677;DHT22;56914;51.058;9.326;2022-10-15T15:01:04;22.20;60.70
69677;DHT22;56914;51.058;9.326;2022-10-15T15:03:37;22.20;60.80
69677;DHT22;56914;51.058;9.326;2022-10-15T15:06:05;22.20;61.00
69677;DHT22;56914;51.058;9.326;2022-10-15T15:08:33;22.20;61.10
69677;DHT22;56914;51.058;9.326;2022-10-15T15:11:02;22.10;61.20
69677;DHT22;56914;51.058;9.326;2022-10-15T15:13:36;22.10;61.40
69677;DHT22;56914;51.058;9.326;2022-10-15T15:16:04;22.00;61.50
69677;DHT22;56914;51.058;9.326;2022-10-15T15:18:32;22.00;61.50
69677;DHT22;56914;51.058;9.326;2022-10-15T15:21:01;22.10;61.50
69677;DHT22;56914;51.058;9.326;2022-10-15T15:23:29;22.10;61.60
69677;DHT22;56914;51.058;9.326;2022-10-15T15:25:58;22.00;61.70
69677;DHT22;56914;51.058;9.326;2022-10-15T15:28:26;22.00;61.80
69677;DHT22;56914;51.058;9.326;2022-10-15T15:30:57;22.00;61.90
69677;DHT22;56914;51.058;9.326;2022-10-15T15:33:25;21.90;62.00
69677;DHT22;56914;51.058;9.326;2022-10-15T15:35:54;21.80;62.10
69677;DHT22;56914;51.058;9.326;2022-10-15T15:38:23;21.80;62.30
69677;DHT22;56914;51.058;9.326;2022-10-15T15:40:59;21.80;62.40
69677;DHT22;56914;51.058;9.326;2022-10-15T15:43:27;21.70;62.60
69677;DHT22;56914;51.058;9.326;2022-10-15T15:45:55;21.70;62.60
69677;DHT22;56914;51.058;9.326;2022-10-15T15:48:24;21.80;62.60
69677;DHT22;56914;51.058;9.326;2022-10-15T15:50:51;21.80;62.50
69677;DHT22;56914;51.058;9.326;2022-10-15T15:53:19;21.70;62.40
69677;DHT22;56914;51.058;9.326;2022-10-15T15:55:47;21.80;62.60
69677;DHT22;56914;51.058;9.326;2022-10-15T15:58:15;21.80;62.60
69677;DHT22;56914;51.058;9.326;2022-10-15T16:00:43;21.80;62.50
69677;DHT22;56914;51.058;9.326;2022-10-15T16:03:11;21.80;62.40
69677;DHT22;56914;51.058;9.326;2022-10-15T16:05:41;21.80;62.40
69677;DHT22;56914;51.058;9.326;2022-10-15T16:08:09;21.80;62.40
69677;DHT22;56914;51.058;9.326;2022-10-15T16:10:36;21.80;62.40
69677;DHT22;56914;51.058;9.326;2022-10-15T16:13:04;21.70;62.40
69677;DHT22;56914;51.058;9.326;2022-10-15T16:15:32;21.70;62.40
69677;DHT22;56914;51.058;9.326;2022-10-15T16:18:00;21.70;62.40
69677;DHT22;56914;51.058;9.326;2022-10-15T16:20:28;21.70;62.40
69677;DHT22;56914;51.058;9.326;2022-10-15T16:22:57;21.70;62.50
69677;DHT22;56914;51.058;9.326;2022-10-15T16:25:24;21.60;62.50
69677;DHT22;56914;51.058;9.326;2022-10-15T16:27:55;21.60;62.60
69677;DHT22;56914;51.058;9.326;2022-10-15T16:30:25;21.50;62.70
69677;DHT22;56914;51.058;9.326;2022-10-15T16:32:52;21.50;62.80
69677;DHT22;56914;51.058;9.326;2022-10-15T16:35:20;21.50;62.70
69677;DHT22;56914;51.058;9.326;2022-10-15T16:37:48;21.50;62.80
69677;DHT22;56914;51.058;9.326;2022-10-15T16:40:19;21.50;62.80
69677;DHT22;56914;51.058;9.326;2022-10-15T16:42:47;21.50;62.90
69677;DHT22;56914;51.058;9.326;2022-10-15T16:45:15;21.50;62.80
69677;DHT22;56914;51.058;9.326;2022-10-15T16:47:42;21.60;62.80
69677;DHT22;56914;51.058;9.326;2022-10-15T16:50:10;21.60;62.70
69677;DHT22;56914;51.058;9.326;2022-10-15T16:52:38;21.60;62.70
69677;DHT22;56914;51.058;9.326;2022-10-15T16:55:06;21.60;62.60
69677;DHT22;56914;51.058;9.326;2022-10-15T16:57:35;21.60;62.60
69677;DHT22;56914;51.058;9.326;2022-10-15T17:00:03;21.60;62.50
69677;DHT22;56914;51.058;9.326;2022-10-15T17:02:31;21.60;62.70
69677;DHT22;56914;51.058;9.326;2022-10-15T17:04:59;21.60;62.80
69677;DHT22;56914;51.058;9.326;2022-10-15T17:07:27;21.50;62.90
69677;DHT22;56914;51.058;9.326;2022-10-15T17:09:55;21.50;62.90
69677;DHT22;56914;51.058;9.326;2022-10-15T17:12:23;21.50;62.90
69677;DHT22;56914;51.058;9.326;2022-10-15T17:14:53;21.50;62.90
69677;DHT22;56914;51.058;9.326;2022-10-15T17:17:20;21.50;62.90
69677;DHT22;56914;51.058;9.326;2022-10-15T17:19:48;21.50;63.00